createdAt,value
2018-12-06T00:00:41.193Z,112.03
2018-12-06T00:03:10.137Z,113.23
2018-12-06T00:05:38.985Z,106.90
2018-12-06T00:08:19.665Z,115.37
2018-12-06T00:10:48.590Z,107.80
2018-12-06T00:13:17.505Z,105.77
2018-12-06T00:15:46.438Z,114.33
2018-12-06T00:18:15.320Z,110.13
2018-12-06T00:20:44.197Z,105.80
2018-12-06T00:23:13.087Z,105.93
2018-12-06T00:25:41.971Z,111.70
2018-12-06T00:28:10.855Z,117.13
2018-12-06T00:30:42.550Z,107.47
2018-12-06T00:33:11.510Z,113.80
2018-12-06T00:35:40.395Z,114.33
2018-12-06T00:38:09.307Z,108.73
2018-12-06T00:40:38.261Z,111.23
2018-12-06T00:43:07.152Z,114.23
2018-12-06T00:45:36.063Z,113.20
2018-12-06T00:48:04.992Z,106.93
2018-12-06T00:50:35.744Z,116.10
2018-12-06T00:53:04.710Z,131.30
2018-12-06T00:55:33.576Z,125.30
2018-12-06T00:58:02.448Z,136.23
2018-12-06T01:00:31.364Z,138.00
2018-12-06T01:03:00.233Z,150.43
2018-12-06T01:05:29.273Z,130.70
2018-12-06T01:07:58.128Z,132.70
2018-12-06T01:10:27.047Z,119.33
2018-12-06T01:12:56.079Z,128.27
2018-12-06T01:15:24.967Z,126.13
2018-12-06T01:17:53.861Z,108.47
2018-12-06T01:20:22.763Z,107.73
2018-12-06T01:22:51.651Z,105.43
2018-12-06T01:25:20.531Z,106.00
2018-12-06T01:27:49.434Z,104.07
2018-12-06T01:30:18.312Z,110.83
2018-12-06T01:32:47.162Z,109.43
2018-12-06T01:35:16.066Z,111.70
2018-12-06T01:37:44.944Z,104.83
2018-12-06T01:40:13.821Z,113.10
2018-12-06T01:42:42.741Z,129.60
2018-12-06T01:45:11.687Z,121.47
2018-12-06T01:47:40.593Z,115.67
2018-12-06T01:50:09.668Z,119.93
2018-12-06T01:52:38.533Z,112.70
2018-12-06T01:55:07.531Z,110.53
2018-12-06T01:57:38.422Z,115.40
2018-12-06T02:00:08.504Z,111.33
2018-12-06T02:02:37.381Z,111.57
2018-12-06T02:05:06.472Z,104.23
2018-12-06T02:07:35.333Z,112.53
2018-12-06T02:10:05.148Z,110.03
2018-12-06T02:12:34.057Z,107.80
2018-12-06T02:15:03.006Z,110.47
2018-12-06T02:17:31.968Z,109.70
2018-12-06T02:20:00.837Z,106.90
2018-12-06T02:22:29.729Z,103.80
2018-12-06T02:24:58.614Z,110.53
2018-12-06T02:27:27.466Z,101.33
2018-12-06T02:29:56.363Z,107.07
2018-12-06T02:32:25.266Z,104.70
2018-12-06T02:34:54.154Z,116.70
2018-12-06T02:37:23.779Z,109.20
2018-12-06T02:39:52.632Z,130.87
2018-12-06T02:42:21.529Z,111.43
2018-12-06T02:44:50.422Z,111.53
2018-12-06T02:47:19.317Z,117.37
2018-12-06T02:49:48.243Z,117.83
2018-12-06T02:52:17.201Z,114.37
2018-12-06T02:54:46.117Z,117.17
2018-12-06T02:57:15.491Z,118.70
2018-12-06T02:59:44.374Z,121.33
2018-12-06T03:02:13.290Z,110.37
2018-12-06T03:04:42.234Z,120.73
2018-12-06T03:07:11.130Z,117.00
2018-12-06T03:09:39.997Z,122.70
2018-12-06T03:12:08.896Z,116.97
2018-12-06T03:14:37.812Z,123.00
2018-12-06T03:17:06.836Z,111.70
2018-12-06T03:19:35.744Z,115.83
2018-12-06T03:22:04.691Z,115.10
2018-12-06T03:24:33.545Z,118.20
2018-12-06T03:27:02.403Z,117.87
2018-12-06T03:29:31.721Z,119.30
2018-12-06T03:32:00.609Z,123.27
2018-12-06T03:34:29.510Z,127.63
2018-12-06T03:36:58.454Z,127.23
2018-12-06T03:39:27.311Z,124.00
2018-12-06T03:41:56.204Z,126.17
2018-12-06T03:44:25.146Z,138.37
2018-12-06T03:46:54.037Z,131.73
2018-12-06T03:49:22.918Z,146.87
2018-12-06T03:51:51.801Z,131.10
2018-12-06T03:54:20.698Z,149.33
2018-12-06T03:56:49.576Z,142.70
2018-12-06T03:59:18.583Z,131.60
2018-12-06T04:01:47.496Z,132.50
2018-12-06T04:04:17.401Z,128.47
2018-12-06T04:06:46.282Z,127.60
2018-12-06T04:09:15.161Z,136.17
2018-12-06T04:11:44.012Z,130.83
2018-12-06T04:14:12.871Z,137.83
2018-12-06T04:16:41.781Z,124.20
2018-12-06T04:19:10.663Z,137.23
2018-12-06T04:21:39.663Z,120.10
2018-12-06T04:24:08.572Z,115.93
2018-12-06T04:26:37.432Z,130.47
2018-12-06T04:29:06.360Z,130.33
2018-12-06T04:31:37.226Z,124.03
2018-12-06T04:34:06.161Z,127.37
2018-12-06T04:36:35.008Z,128.27
2018-12-06T04:39:06.208Z,131.87
2018-12-06T04:41:35.114Z,123.90
2018-12-06T04:44:04.146Z,115.67
2018-12-06T04:46:33.013Z,123.00
2018-12-06T04:49:01.941Z,111.03
2018-12-06T04:51:31.454Z,98.27
2018-12-06T04:54:00.357Z,95.87
2018-12-06T04:56:29.257Z,110.60
2018-12-06T04:58:58.130Z,91.07
2018-12-06T05:01:27.438Z,81.20
2018-12-06T05:03:56.298Z,75.73
2018-12-06T05:06:25.146Z,79.57
2018-12-06T05:08:54.015Z,95.10
2018-12-06T05:11:22.906Z,98.97
2018-12-06T05:13:51.750Z,92.90
2018-12-06T05:16:21.237Z,100.10
2018-12-06T05:18:50.113Z,101.60
2018-12-06T05:21:19.120Z,95.77
2018-12-06T05:23:47.990Z,93.17
2018-12-06T05:26:16.885Z,101.23
2018-12-06T05:28:45.738Z,91.00
2018-12-06T05:31:14.576Z,90.80
2018-12-06T05:33:43.468Z,96.03
2018-12-06T05:36:12.321Z,99.00
2018-12-06T05:38:41.810Z,98.77
2018-12-06T05:41:11.105Z,100.00
2018-12-06T05:43:40.007Z,104.87
2018-12-06T05:46:08.948Z,106.90
2018-12-06T05:48:38.381Z,94.40
2018-12-06T05:51:07.205Z,94.30
2018-12-06T05:53:36.033Z,94.93
2018-12-06T05:56:05.004Z,91.40
2018-12-06T05:58:33.842Z,88.97
2018-12-06T06:01:03.746Z,90.93
2018-12-06T06:03:32.868Z,96.30
2018-12-06T06:06:01.794Z,95.27
2018-12-06T06:08:30.763Z,96.50
2018-12-06T06:10:59.718Z,94.57
2018-12-06T06:13:29.153Z,106.37
2018-12-06T06:15:58.256Z,102.27
2018-12-06T06:18:27.561Z,111.00
2018-12-06T06:20:56.490Z,102.07
2018-12-06T06:23:26.031Z,110.77
2018-12-06T06:25:55.038Z,107.37
2018-12-06T06:28:23.994Z,129.57
2018-12-06T06:30:52.821Z,152.50
2018-12-06T06:33:21.703Z,118.53
2018-12-06T06:35:51.003Z,123.87
2018-12-06T06:38:19.967Z,123.93
2018-12-06T06:40:48.849Z,124.67
2018-12-06T06:43:17.776Z,107.93
2018-12-06T06:45:47.221Z,96.63
2018-12-06T06:48:16.750Z,76.97
2018-12-06T06:50:45.587Z,97.97
2018-12-06T06:53:14.433Z,83.87
2018-12-06T06:55:43.451Z,78.93
2018-12-06T06:58:13.062Z,82.67
2018-12-06T07:00:41.933Z,72.83
2018-12-06T07:03:10.809Z,83.60
2018-12-06T07:05:39.678Z,80.47
2018-12-06T07:08:08.646Z,90.43
2018-12-06T07:10:37.551Z,96.97
2018-12-06T07:13:06.469Z,100.20
2018-12-06T07:15:36.395Z,101.90
2018-12-06T07:18:05.321Z,103.30
2018-12-06T07:20:34.169Z,106.00
2018-12-06T07:23:03.121Z,107.80
2018-12-06T07:25:32.090Z,105.53
2018-12-06T07:28:00.952Z,102.23
2018-12-06T07:30:29.874Z,105.10
2018-12-06T07:32:58.758Z,96.40
2018-12-06T07:35:27.916Z,126.47
2018-12-06T07:37:56.763Z,101.23
2018-12-06T07:40:25.650Z,111.43
2018-12-06T07:42:54.580Z,106.40
2018-12-06T07:45:23.551Z,95.17
2018-12-06T07:47:52.382Z,93.73
2018-12-06T07:50:21.280Z,99.47
2018-12-06T07:52:50.174Z,110.97
2018-12-06T07:55:19.039Z,112.33
2018-12-06T07:57:47.914Z,104.43
2018-12-06T08:00:16.890Z,102.07
2018-12-06T08:02:45.751Z,93.87
2018-12-06T08:05:54.188Z,101.23
2018-12-06T08:08:23.042Z,91.43
2018-12-06T08:10:51.922Z,85.17
2018-12-06T08:13:20.814Z,86.97
2018-12-06T08:15:49.693Z,85.23
2018-12-06T08:18:18.548Z,81.03
2018-12-06T08:20:47.436Z,80.90
2018-12-06T08:23:16.327Z,77.00
2018-12-06T08:25:45.265Z,77.93
2018-12-06T08:28:14.144Z,80.07
2018-12-06T08:30:43.382Z,75.90
2018-12-06T08:33:12.236Z,72.83
2018-12-06T08:35:41.135Z,78.43
2018-12-06T08:38:10.017Z,77.13
2018-12-06T08:40:38.874Z,73.17
2018-12-06T08:43:07.784Z,76.43
2018-12-06T08:45:36.651Z,73.37
2018-12-06T08:48:05.684Z,78.43
2018-12-06T08:50:34.597Z,71.27
2018-12-06T08:53:04.250Z,85.37
2018-12-06T08:55:33.238Z,78.73
2018-12-06T08:58:02.795Z,83.23
2018-12-06T09:00:31.870Z,76.20
2018-12-06T09:03:01.239Z,83.87
2018-12-06T09:05:30.286Z,84.50
2018-12-06T09:08:00.283Z,83.63
2018-12-06T09:10:29.278Z,90.00
2018-12-06T09:12:58.343Z,86.50
2018-12-06T09:15:27.334Z,91.83
2018-12-06T09:17:56.326Z,110.00
2018-12-06T09:20:25.395Z,137.17
2018-12-06T09:22:54.439Z,80.17
2018-12-06T09:25:23.438Z,76.50
2018-12-06T09:27:52.454Z,85.80
2018-12-06T09:30:21.460Z,84.87
2018-12-06T09:32:50.531Z,98.73
2018-12-06T09:35:19.563Z,77.63
2018-12-06T09:37:48.526Z,87.83
2018-12-06T09:40:17.551Z,136.13
2018-12-06T09:42:46.568Z,98.73
2018-12-06T09:45:16.179Z,158.80
2018-12-06T09:47:45.169Z,151.40
2018-12-06T09:50:14.205Z,82.57
2018-12-06T09:52:43.224Z,92.40
2018-12-06T09:55:12.366Z,80.47
2018-12-06T09:57:41.653Z,75.70
2018-12-06T10:00:13.034Z,61.30
2018-12-06T10:02:42.079Z,57.53
2018-12-06T10:05:12.420Z,62.00
2018-12-06T10:07:41.440Z,73.73
2018-12-06T10:10:11.090Z,55.70
2018-12-06T10:12:40.114Z,49.40
2018-12-06T10:15:09.978Z,57.73
2018-12-06T10:17:39.802Z,55.00
2018-12-06T10:20:11.185Z,50.10
2018-12-06T10:22:40.206Z,52.77
2018-12-06T10:25:10.606Z,52.53
2018-12-06T10:27:40.311Z,55.43
2018-12-06T10:30:09.367Z,55.60
2018-12-06T10:32:38.839Z,52.73
2018-12-06T10:35:08.460Z,51.77
2018-12-06T10:37:37.865Z,60.20
2018-12-06T10:40:08.369Z,54.90
2018-12-06T10:42:37.377Z,51.03
2018-12-06T10:45:11.461Z,52.63
2018-12-06T10:47:40.822Z,54.17
2018-12-06T10:50:09.838Z,47.83
2018-12-06T10:52:38.853Z,45.17
2018-12-06T10:55:07.905Z,47.57
2018-12-06T10:57:38.060Z,50.80
2018-12-06T11:00:09.549Z,46.43
2018-12-06T11:02:44.653Z,51.00
2018-12-06T11:05:14.260Z,52.00
2018-12-06T11:07:43.845Z,45.93
2018-12-06T11:10:12.961Z,44.80
2018-12-06T11:12:41.972Z,45.17
2018-12-06T11:15:10.954Z,44.40
2018-12-06T11:17:39.982Z,46.87
2018-12-06T11:20:09.108Z,51.53
2018-12-06T11:22:38.099Z,56.60
2018-12-06T11:25:07.804Z,50.27
2018-12-06T11:27:37.293Z,48.90
2018-12-06T11:30:06.580Z,47.47
2018-12-06T11:32:36.453Z,45.97
2018-12-06T11:35:05.652Z,48.10
2018-12-06T11:37:34.648Z,43.00
2018-12-06T11:40:03.805Z,43.90
2018-12-06T11:42:32.814Z,50.00
2018-12-06T11:45:01.846Z,54.97
2018-12-06T11:47:30.821Z,58.80
2018-12-06T11:50:00.712Z,48.10
2018-12-06T11:52:29.758Z,50.10
2018-12-06T11:54:59.553Z,47.00
2018-12-06T11:57:28.521Z,56.80
2018-12-06T11:59:57.725Z,46.07
2018-12-06T12:02:26.706Z,54.27
2018-12-06T12:04:55.685Z,60.17
2018-12-06T12:07:25.187Z,57.27
2018-12-06T12:09:54.213Z,52.80
2018-12-06T12:12:23.195Z,53.23
2018-12-06T12:14:52.579Z,57.50
2018-12-06T12:17:22.200Z,51.80
2018-12-06T12:19:51.170Z,48.63
2018-12-06T12:22:20.250Z,46.20
2018-12-06T12:24:49.260Z,52.67
2018-12-06T12:27:18.935Z,47.70
2018-12-06T12:29:49.000Z,50.90
2018-12-06T12:32:18.000Z,51.10
2018-12-06T12:34:47.954Z,53.73
2018-12-06T12:37:16.993Z,65.90
2018-12-06T12:39:45.965Z,57.70
2018-12-06T12:42:14.945Z,52.90
2018-12-06T12:44:43.978Z,55.83
2018-12-06T12:47:12.962Z,59.57
2018-12-06T12:49:41.961Z,58.03
2018-12-06T12:52:10.995Z,49.77
2018-12-06T12:54:39.981Z,51.40
2018-12-06T12:57:09.074Z,48.67
2018-12-06T12:59:38.088Z,49.67
2018-12-06T13:02:07.161Z,44.23
2018-12-06T13:04:36.184Z,50.30
2018-12-06T13:07:13.084Z,46.47
2018-12-06T13:09:42.200Z,44.90
2018-12-06T13:12:11.287Z,49.77
2018-12-06T13:14:40.391Z,49.87
2018-12-06T13:17:09.860Z,42.60
2018-12-06T13:19:39.234Z,49.43
2018-12-06T13:22:08.415Z,46.40
2018-12-06T13:24:37.637Z,49.77
2018-12-06T13:27:06.897Z,44.43
2018-12-06T13:29:36.804Z,46.17
2018-12-06T13:32:06.092Z,45.50
2018-12-06T13:34:35.464Z,49.10
2018-12-06T13:37:04.694Z,48.10
2018-12-06T13:39:34.300Z,56.07
2018-12-06T13:42:03.563Z,58.03
2018-12-06T13:44:32.849Z,51.97
2018-12-06T13:47:02.082Z,54.10
2018-12-06T13:49:31.294Z,53.63
2018-12-06T13:52:00.689Z,62.53
2018-12-06T13:54:29.879Z,58.43
2018-12-06T13:56:59.063Z,54.60
2018-12-06T13:59:28.733Z,51.67
2018-12-06T14:01:57.900Z,54.20
2018-12-06T14:04:28.050Z,51.73
2018-12-06T14:06:57.851Z,51.37
2018-12-06T14:09:27.216Z,56.83
2018-12-06T14:11:56.278Z,56.97
2018-12-06T14:14:25.385Z,54.13
2018-12-06T14:16:54.429Z,53.80
2018-12-06T14:19:23.470Z,47.47
2018-12-06T14:21:52.562Z,60.30
2018-12-06T14:24:21.982Z,50.93
2018-12-06T14:26:51.643Z,55.60
2018-12-06T14:29:20.737Z,60.73
2018-12-06T14:31:50.810Z,52.03
2018-12-06T14:34:19.863Z,53.73
2018-12-06T14:37:01.711Z,58.57
2018-12-06T14:39:20.381Z,55.33
2018-12-06T14:41:49.725Z,56.77
2018-12-06T14:44:18.787Z,50.57
2018-12-06T14:46:47.832Z,57.23
2018-12-06T14:49:16.991Z,61.57
2018-12-06T14:51:46.063Z,57.47
2018-12-06T14:54:15.162Z,58.10
2018-12-06T14:56:44.894Z,59.50
2018-12-06T14:59:14.684Z,62.40
2018-12-06T15:01:43.777Z,60.20
2018-12-06T15:04:12.806Z,65.60
2018-12-06T15:06:41.896Z,67.10
2018-12-06T15:09:11.314Z,56.60
2018-12-06T15:11:40.415Z,61.67
2018-12-06T15:14:09.494Z,61.77
2018-12-06T15:16:38.459Z,58.90
2018-12-06T15:19:07.431Z,59.97
2018-12-06T15:21:36.326Z,69.73
2018-12-06T15:24:05.265Z,55.23
2018-12-06T15:26:34.189Z,51.37
2018-12-06T15:29:03.092Z,62.37
2018-12-06T15:31:32.039Z,54.13
2018-12-06T15:34:00.959Z,51.83
2018-12-06T15:36:29.872Z,51.97
2018-12-06T15:38:58.782Z,51.47
2018-12-06T15:41:27.721Z,48.17
2018-12-06T15:43:56.665Z,55.77
2018-12-06T15:46:25.585Z,51.33
2018-12-06T15:48:54.495Z,52.70
2018-12-06T15:51:25.497Z,51.07
2018-12-06T15:53:55.470Z,56.00
2018-12-06T15:56:24.378Z,56.57
2018-12-06T15:58:53.323Z,71.93
2018-12-06T16:01:22.287Z,62.47
2018-12-06T16:03:51.570Z,54.97
2018-12-06T16:06:20.501Z,55.53
2018-12-06T16:08:49.418Z,52.53
2018-12-06T16:11:18.368Z,50.70
2018-12-06T16:13:47.313Z,53.73
2018-12-06T16:16:16.214Z,63.17
2018-12-06T16:18:45.174Z,61.03
2018-12-06T16:21:14.253Z,53.13
2018-12-06T16:23:43.545Z,65.50
2018-12-06T16:26:12.497Z,73.20
2018-12-06T16:28:41.466Z,61.73
2018-12-06T16:31:10.393Z,56.60
2018-12-06T16:33:40.116Z,50.83
2018-12-06T16:36:10.074Z,57.10
2018-12-06T16:38:39.298Z,54.33
2018-12-06T16:41:08.286Z,57.03
2018-12-06T16:43:37.438Z,61.70
2018-12-06T16:46:06.986Z,59.53
2018-12-06T16:48:36.591Z,54.70
2018-12-06T16:51:06.063Z,52.17
2018-12-06T16:53:35.496Z,57.40
2018-12-06T16:56:04.603Z,51.27
2018-12-06T16:58:33.619Z,48.03
2018-12-06T17:01:02.652Z,45.53
2018-12-06T17:03:31.585Z,57.60
2018-12-06T17:06:01.532Z,60.17
2018-12-06T17:08:30.812Z,62.20
2018-12-06T17:10:59.813Z,64.37
2018-12-06T17:13:28.787Z,70.77
2018-12-06T17:15:58.104Z,63.63
2018-12-06T17:18:27.131Z,66.07
2018-12-06T17:20:56.105Z,63.47
2018-12-06T17:23:25.091Z,62.80
2018-12-06T17:25:54.067Z,60.73
2018-12-06T17:28:23.446Z,59.07
2018-12-06T17:30:52.730Z,61.90
2018-12-06T17:33:21.622Z,58.20
2018-12-06T17:35:50.493Z,62.33
2018-12-06T17:38:19.836Z,65.93
2018-12-06T17:40:49.677Z,58.97
2018-12-06T17:43:21.834Z,61.30
2018-12-06T17:45:51.168Z,62.53
2018-12-06T17:48:20.447Z,65.20
2018-12-06T17:50:49.795Z,71.43
2018-12-06T17:53:19.164Z,70.53
2018-12-06T17:55:54.485Z,83.10
2018-12-06T17:58:23.892Z,69.53
2018-12-06T18:00:52.788Z,63.33
2018-12-06T18:03:21.812Z,64.87
2018-12-06T18:05:50.743Z,71.93
2018-12-06T18:08:19.833Z,74.77
2018-12-06T18:10:48.897Z,78.17
2018-12-06T18:13:17.921Z,72.17
2018-12-06T18:15:47.187Z,65.17
2018-12-06T18:18:16.094Z,64.47
2018-12-06T18:20:45.002Z,68.10
2018-12-06T18:23:13.938Z,64.83
2018-12-06T18:25:42.866Z,63.17
2018-12-06T18:28:11.944Z,60.77
2018-12-06T18:30:40.798Z,65.60
2018-12-06T18:33:09.691Z,67.53
2018-12-06T18:35:38.619Z,60.30
2018-12-06T18:38:07.435Z,55.63
2018-12-06T18:40:36.340Z,72.33
2018-12-06T18:43:05.347Z,65.57
2018-12-06T18:45:34.388Z,69.73
2018-12-06T18:48:03.417Z,67.53
2018-12-06T18:50:32.275Z,63.13
2018-12-06T18:53:01.175Z,64.50
2018-12-06T18:55:30.164Z,72.37
2018-12-06T18:57:59.165Z,65.67
2018-12-06T19:00:28.103Z,71.33
2018-12-06T19:02:57.559Z,94.33
2018-12-06T19:05:26.409Z,72.77
2018-12-06T19:07:55.230Z,71.00
2018-12-06T19:10:24.210Z,69.00
2018-12-06T19:12:53.152Z,70.57
2018-12-06T19:15:22.248Z,65.27
2018-12-06T19:17:51.276Z,62.70
2018-12-06T19:20:20.198Z,62.17
2018-12-06T19:22:49.229Z,76.87
2018-12-06T19:25:18.113Z,65.47
2018-12-06T19:27:47.211Z,67.23
2018-12-06T19:30:16.242Z,65.80
2018-12-06T19:32:45.174Z,71.60
2018-12-06T19:35:14.086Z,72.17
2018-12-06T19:37:43.959Z,63.93
2018-12-06T19:40:12.882Z,63.57
2018-12-06T19:42:41.780Z,71.47
2018-12-06T19:45:10.705Z,69.97
2018-12-06T19:47:39.610Z,70.27
2018-12-06T19:50:08.769Z,60.87
2018-12-06T19:52:37.784Z,63.93
2018-12-06T19:55:07.717Z,56.30
2018-12-06T19:57:36.763Z,54.17
2018-12-06T20:00:06.323Z,54.13
2018-12-06T20:02:35.196Z,58.17
2018-12-06T20:05:05.129Z,56.97
2018-12-06T20:07:33.966Z,56.17
2018-12-06T20:10:02.871Z,60.77
2018-12-06T20:12:31.781Z,65.87
2018-12-06T20:15:00.614Z,66.77
2018-12-06T20:17:29.496Z,66.53
2018-12-06T20:19:58.444Z,57.07
2018-12-06T20:22:27.733Z,55.67
2018-12-06T20:24:56.926Z,54.97
2018-12-06T20:27:25.809Z,61.03
2018-12-06T20:29:54.909Z,58.03
2018-12-06T20:32:23.877Z,57.20
2018-12-06T20:34:54.222Z,60.90
2018-12-06T20:37:23.328Z,63.50
2018-12-06T20:39:52.286Z,56.60
2018-12-06T20:42:21.254Z,57.73
2018-12-06T20:44:50.238Z,57.60
2018-12-06T20:47:20.159Z,62.00
2018-12-06T20:49:49.284Z,57.57
2018-12-06T20:52:18.385Z,59.53
2018-12-06T20:54:47.358Z,63.10
2018-12-06T20:57:16.355Z,62.93
2018-12-06T20:59:45.244Z,64.93
2018-12-06T21:02:14.238Z,65.73
2018-12-06T21:04:43.104Z,65.70
2018-12-06T21:07:12.014Z,66.23
2018-12-06T21:09:41.058Z,65.90
2018-12-06T21:12:10.516Z,68.50
2018-12-06T21:14:39.394Z,65.13
2018-12-06T21:17:08.339Z,67.17
2018-12-06T21:19:37.302Z,64.80
2018-12-06T21:22:06.361Z,76.27
2018-12-06T21:24:35.331Z,67.80
2018-12-06T21:27:04.315Z,68.07
2018-12-06T21:29:33.969Z,72.83
2018-12-06T21:32:02.914Z,61.87
2018-12-06T21:34:32.088Z,71.77
2018-12-06T21:37:02.130Z,65.93
2018-12-06T21:39:31.003Z,76.40
2018-12-06T21:41:59.886Z,68.07
2018-12-06T21:44:29.440Z,68.07
2018-12-06T21:46:58.297Z,66.27
2018-12-06T21:49:27.241Z,69.13
2018-12-06T21:51:56.086Z,67.50
2018-12-06T21:54:25.125Z,69.87
2018-12-06T21:56:53.994Z,67.60
2018-12-06T21:59:23.563Z,66.03
2018-12-06T22:02:02.202Z,70.20
2018-12-06T22:04:31.254Z,70.90
2018-12-06T22:07:00.255Z,69.83
2018-12-06T22:09:29.632Z,64.47
2018-12-06T22:11:58.763Z,63.20
2018-12-06T22:14:27.621Z,68.40
2018-12-06T22:16:56.476Z,70.30
2018-12-06T22:19:25.400Z,62.07
2018-12-06T22:21:54.767Z,65.87
2018-12-06T22:24:23.610Z,66.33
2018-12-06T22:26:52.481Z,66.87
2018-12-06T22:29:21.416Z,62.67
2018-12-06T22:31:50.364Z,70.17
2018-12-06T22:34:19.311Z,61.97
2018-12-06T22:36:48.677Z,67.37
2018-12-06T22:39:17.503Z,68.93
2018-12-06T22:41:46.428Z,61.83
2018-12-06T22:44:15.290Z,71.17
2018-12-06T22:46:44.189Z,60.23
2018-12-06T22:49:13.109Z,62.80
2018-12-06T22:51:42.023Z,64.00
2018-12-06T22:54:10.923Z,58.70
2018-12-06T22:56:39.790Z,64.53
2018-12-06T22:59:08.778Z,64.07
2018-12-06T23:01:41.188Z,61.27
2018-12-06T23:04:10.201Z,57.13
2018-12-06T23:06:39.175Z,57.80
2018-12-06T23:09:10.033Z,60.87
2018-12-06T23:11:39.353Z,64.80
2018-12-06T23:14:08.225Z,66.53
2018-12-06T23:16:38.067Z,60.53
2018-12-06T23:19:07.009Z,61.10
2018-12-06T23:21:35.886Z,60.53
2018-12-06T23:24:04.946Z,60.97
2018-12-06T23:26:33.814Z,56.03
2018-12-06T23:29:02.687Z,57.30
2018-12-06T23:31:31.593Z,55.30
2018-12-06T23:34:00.568Z,59.03
2018-12-06T23:36:29.412Z,58.83
2018-12-06T23:38:58.253Z,59.83
2018-12-06T23:41:27.166Z,57.80
2018-12-06T23:43:56.018Z,54.47
2018-12-06T23:46:24.871Z,58.13
2018-12-06T23:48:53.743Z,54.50
2018-12-06T23:51:35.130Z,56.20
2018-12-06T23:54:04.840Z,56.67
2018-12-06T23:56:33.682Z,58.73
2018-12-06T23:59:03.941Z,54.67
